Time;durP1;ratioP1;P1;durP2;ratioP2;P2;SDS_P1;SDS_P2;PMS_P1;PMS_P2;Temp;Humidity;BMP_temperature;BMP_pressure;BME280_temperature;BME280_humidity;BME280_pressure;Samples;Min_cycle;Max_cycle;Signal;HPM_P1;HPM_P2
2022/07/11 00:00:11;;;;;;;1.07;1.03;;;13.00;94.50;;;;;;5014889;28;20411;-70
2022/07/11 00:02:38;;;;;;;0.50;0.50;;;13.00;94.60;;;;;;5015238;28;20417;-70
2022/07/11 00:05:05;;;;;;;1.03;1.03;;;13.00;94.60;;;;;;5014873;28;20412;-70
2022/07/11 00:07:30;;;;;;;0.50;0.50;;;12.90;94.80;;;;;;5014459;28;20432;-70
2022/07/11 00:09:57;;;;;;;0.40;0.40;;;12.80;95.20;;;;;;5014685;28;20439;-70
2022/07/11 00:12:26;;;;;;;0.60;0.60;;;12.70;95.60;;;;;;5013470;28;20452;-70
2022/07/11 00:14:53;;;;;;;1.73;0.60;;;12.80;95.50;;;;;;5014783;28;20450;-70
2022/07/11 00:17:18;;;;;;;0.30;0.30;;;12.70;95.50;;;;;;5014273;28;20483;-70
2022/07/11 00:19:45;;;;;;;0.50;0.50;;;12.70;95.50;;;;;;5014675;28;20486;-70
2022/07/11 00:22:11;;;;;;;0.43;0.43;;;12.70;95.70;;;;;;5014516;28;20176;-70
2022/07/11 00:24:37;;;;;;;0.50;0.50;;;12.60;95.90;;;;;;5014453;28;20426;-70
2022/07/11 00:27:03;;;;;;;5.70;0.53;;;12.50;96.10;;;;;;5014360;28;20239;-70
2022/07/11 00:29:29;;;;;;;0.60;0.60;;;12.50;96.10;;;;;;5014227;28;20480;-70
2022/07/11 00:31:55;;;;;;;0.70;0.70;;;12.50;96.30;;;;;;5012930;28;20475;-70
2022/07/11 00:34:21;;;;;;;0.30;0.30;;;12.50;96.30;;;;;;5014225;28;20562;-70
2022/07/11 00:36:46;;;;;;;0.53;0.53;;;12.50;96.50;;;;;;5014299;28;20432;-70
2022/07/11 00:39:12;;;;;;;0.53;0.53;;;12.50;96.50;;;;;;5013965;28;20928;-70
2022/07/11 00:41:38;;;;;;;0.50;0.50;;;12.40;96.60;;;;;;5014380;28;20222;-70
2022/07/11 00:44:03;;;;;;;2.00;0.67;;;12.50;96.80;;;;;;5013859;28;20567;-70
2022/07/11 00:46:30;;;;;;;0.40;0.40;;;12.50;96.60;;;;;;5014096;28;20169;-71
2022/07/11 00:48:57;;;;;;;1.23;1.13;;;12.50;96.90;;;;;;5013851;28;20194;-70
2022/07/11 00:51:24;;;;;;;0.40;0.40;;;12.40;97.00;;;;;;5014060;28;20803;-70
2022/07/11 00:53:52;;;;;;;0.57;0.57;;;12.40;96.90;;;;;;5014010;28;20613;-70
2022/07/11 00:56:20;;;;;;;0.50;0.50;;;12.40;96.70;;;;;;5014078;28;20405;-70
2022/07/11 00:58:47;;;;;;;0.80;0.60;;;12.40;96.80;;;;;;5013680;28;20886;-70
2022/07/11 01:01:13;;;;;;;0.77;0.63;;;12.40;97.00;;;;;;5013877;28;20719;-70
2022/07/11 01:03:41;;;;;;;0.40;0.40;;;12.30;96.80;;;;;;5014080;28;20416;-70
2022/07/11 01:06:08;;;;;;;0.50;0.50;;;12.30;97.10;;;;;;5013903;28;20528;-70
2022/07/11 01:08:35;;;;;;;0.50;0.50;;;12.30;97.10;;;;;;5013724;28;20435;-70
2022/07/11 01:11:19;;;;;;;0.40;0.40;;;12.30;97.00;;;;;;5013934;28;20457;-70
2022/07/11 01:13:46;;;;;;;0.63;0.40;;;12.30;97.10;;;;;;5014084;28;20459;-70
2022/07/11 01:16:14;;;;;;;0.50;0.50;;;12.20;97.30;;;;;;5013940;28;20410;-71
2022/07/11 01:18:44;;;;;;;0.55;0.55;;;12.20;97.60;;;;;;5013517;28;20509;-70
2022/07/11 01:21:19;;;;;;;0.40;0.40;;;12.20;97.70;;;;;;5013793;28;20175;-70
2022/07/11 01:23:47;;;;;;;0.50;0.50;;;12.10;97.30;;;;;;5013842;28;20399;-70
2022/07/11 01:26:14;;;;;;;0.30;0.30;;;12.20;97.60;;;;;;5013540;28;20245;-70
2022/07/11 01:28:40;;;;;;;0.70;0.60;;;12.10;97.50;;;;;;5013370;28;20226;-70
2022/07/11 01:31:05;;;;;;;0.50;0.40;;;12.10;97.70;;;;;;5013792;28;20937;-70
2022/07/11 01:33:35;;;;;;;0.60;0.60;;;12.10;97.80;;;;;;5013692;28;20199;-71
2022/07/11 01:36:02;;;;;;;0.40;0.40;;;12.00;97.90;;;;;;5014202;28;20615;-70
2022/07/11 01:38:28;;;;;;;0.50;0.50;;;12.10;97.70;;;;;;5013440;28;20611;-70
2022/07/11 01:40:54;;;;;;;0.60;0.60;;;12.10;97.70;;;;;;5013524;28;20400;-70
2022/07/11 01:43:19;;;;;;;0.40;0.40;;;12.10;97.80;;;;;;5013576;28;20456;-71
2022/07/11 01:45:45;;;;;;;0.60;0.60;;;12.10;97.90;;;;;;5013783;28;20186;-71
2022/07/11 01:48:11;;;;;;;0.40;0.40;;;12.10;98.20;;;;;;5013276;28;20192;-70
2022/07/11 01:50:36;;;;;;;0.80;0.80;;;12.10;98.30;;;;;;5013403;28;20240;-70
2022/07/11 01:53:02;;;;;;;0.53;0.53;;;12.10;98.00;;;;;;5013458;28;20250;-70
2022/07/11 01:55:28;;;;;;;0.40;0.40;;;12.10;97.90;;;;;;5014591;28;20175;-70
2022/07/11 01:57:54;;;;;;;0.40;0.40;;;12.10;97.90;;;;;;5017155;28;20607;-70
2022/07/11 02:00:19;;;;;;;0.60;0.60;;;12.00;98.00;;;;;;5017063;28;20404;-70
2022/07/11 02:02:45;;;;;;;0.70;0.70;;;12.10;98.20;;;;;;5017188;28;20175;-70
2022/07/11 02:05:11;;;;;;;0.60;0.50;;;12.00;98.10;;;;;;5017133;28;20175;-70
2022/07/11 02:10:21;;;;;;;0.60;0.60;;;12.10;97.80;;;;;;5017411;28;20547;-70
2022/07/11 02:12:46;;;;;;;0.43;0.43;;;12.00;98.10;;;;;;5016810;28;20196;-70
2022/07/11 02:15:12;;;;;;;0.50;0.50;;;12.00;98.40;;;;;;5017046;28;20202;-70
2022/07/11 02:17:37;;;;;;;0.50;0.50;;;11.90;98.30;;;;;;5016642;28;20187;-71
2022/07/11 02:20:03;;;;;;;0.50;0.50;;;11.80;98.60;;;;;;5016681;28;20191;-71
2022/07/11 02:22:29;;;;;;;0.60;0.60;;;11.80;98.60;;;;;;5016635;28;20178;-70
2022/07/11 02:24:56;;;;;;;0.40;0.40;;;11.80;98.70;;;;;;5016566;28;20430;-70
2022/07/11 02:27:21;;;;;;;0.50;0.50;;;11.70;98.80;;;;;;5016411;28;20182;-70
2022/07/11 02:29:47;;;;;;;0.70;0.70;;;11.70;99.00;;;;;;5016536;28;20167;-70
2022/07/11 02:32:12;;;;;;;0.83;0.83;;;11.70;99.00;;;;;;5016596;28;20555;-70
2022/07/11 02:34:38;;;;;;;0.50;0.50;;;11.70;99.00;;;;;;5016584;28;20172;-71
2022/07/11 02:37:05;;;;;;;0.37;0.37;;;11.70;99.30;;;;;;5016260;28;20175;-70
2022/07/11 02:39:31;;;;;;;0.77;0.77;;;11.60;99.30;;;;;;5016339;28;20192;-70
2022/07/11 02:41:57;;;;;;;0.70;0.70;;;11.70;99.10;;;;;;5016417;28;20182;-70
2022/07/11 02:44:22;;;;;;;1.10;1.00;;;11.60;99.10;;;;;;5016384;28;20175;-70
2022/07/11 02:46:48;;;;;;;0.30;0.30;;;11.60;99.40;;;;;;5016478;28;20180;-70
2022/07/11 02:49:14;;;;;;;0.53;0.50;;;11.70;99.20;;;;;;5015935;28;20196;-70
2022/07/11 02:51:39;;;;;;;0.40;0.40;;;11.70;99.40;;;;;;5016105;28;20632;-70
2022/07/11 02:54:05;;;;;;;0.67;0.60;;;11.70;99.30;;;;;;5016156;28;20168;-70
2022/07/11 02:56:30;;;;;;;0.50;0.50;;;11.70;99.40;;;;;;5016125;28;20255;-70
2022/07/11 02:58:56;;;;;;;26.73;1.57;;;11.70;99.30;;;;;;5015739;28;20230;-70
2022/07/11 03:01:22;;;;;;;0.30;0.30;;;11.80;99.20;;;;;;5016153;28;20247;-70
2022/07/11 03:03:47;;;;;;;0.60;0.60;;;11.70;99.00;;;;;;5016069;28;20655;-70
2022/07/11 03:06:13;;;;;;;0.37;0.37;;;11.80;99.00;;;;;;5014575;28;20570;-70
2022/07/11 03:08:39;;;;;;;0.90;0.90;;;11.80;98.50;;;;;;5015583;28;20195;-70
2022/07/11 03:11:05;;;;;;;1.05;0.52;;;11.80;98.60;;;;;;5015918;28;20643;-70
2022/07/11 03:13:31;;;;;;;0.30;0.30;;;11.80;98.50;;;;;;5015814;28;20286;-70
2022/07/11 03:15:57;;;;;;;0.30;0.30;;;11.90;98.70;;;;;;5015867;28;20210;-70
2022/07/11 03:18:22;;;;;;;0.40;0.40;;;11.90;98.50;;;;;;5015460;28;20273;-70
2022/07/11 03:20:48;;;;;;;0.50;0.50;;;11.90;98.20;;;;;;5015582;28;20532;-70
2022/07/11 03:23:14;;;;;;;0.30;0.30;;;11.90;98.30;;;;;;5015611;28;20172;-70
2022/07/11 03:25:39;;;;;;;0.40;0.40;;;11.90;98.40;;;;;;5015589;28;20675;-70
2022/07/11 03:28:05;;;;;;;0.40;0.40;;;11.90;98.40;;;;;;5015319;28;20192;-70
2022/07/11 03:30:31;;;;;;;0.35;0.35;;;11.80;98.50;;;;;;5015426;28;20263;-70
2022/07/11 03:32:57;;;;;;;1.13;1.13;;;11.80;98.70;;;;;;5015411;28;20278;-70
2022/07/11 03:35:40;;;;;;;0.30;0.30;;;11.80;98.90;;;;;;5015314;28;20160;-70
2022/07/11 03:38:07;;;;;;;0.70;0.70;;;11.80;98.70;;;;;;5015158;28;20270;-70
2022/07/11 03:40:32;;;;;;;0.40;0.40;;;11.80;98.70;;;;;;5015348;28;20210;-70
2022/07/11 03:42:58;;;;;;;0.90;0.90;;;11.80;98.70;;;;;;5015336;28;20199;-71
2022/07/11 03:45:24;;;;;;;0.80;0.80;;;11.70;98.90;;;;;;5013820;28;20423;-70
2022/07/11 03:47:50;;;;;;;0.30;0.30;;;11.70;99.10;;;;;;5014892;28;20200;-71
2022/07/11 03:50:16;;;;;;;0.57;0.57;;;11.50;99.60;;;;;;5015147;28;20175;-70
2022/07/11 03:52:42;;;;;;;0.40;0.40;;;11.60;99.30;;;;;;5015022;28;20195;-70
2022/07/11 03:55:08;;;;;;;0.60;0.60;;;11.60;99.30;;;;;;5014927;28;20572;-70
2022/07/11 03:57:34;;;;;;;0.40;0.40;;;11.60;99.30;;;;;;5013535;28;20517;-70
2022/07/11 04:00:06;;;;;;;0.30;0.30;;;11.70;99.20;;;;;;5014797;28;20506;-70
2022/07/11 04:02:32;;;;;;;0.80;0.80;;;11.60;98.80;;;;;;5014782;28;20253;-70
2022/07/11 04:04:58;;;;;;;0.63;0.50;;;11.50;99.10;;;;;;5014820;28;20418;-70
2022/07/11 04:07:23;;;;;;;0.50;0.50;;;11.60;99.10;;;;;;5014547;28;20267;-70
2022/07/11 04:09:49;;;;;;;0.50;0.50;;;11.70;99.20;;;;;;5014818;28;20239;-70
2022/07/11 04:12:17;;;;;;;0.50;0.50;;;11.70;99.00;;;;;;5014617;28;20282;-70
2022/07/11 04:14:43;;;;;;;2.67;0.75;;;11.60;99.00;;;;;;5014502;28;20168;-70
2022/07/11 04:17:09;;;;;;;0.50;0.40;;;11.70;99.10;;;;;;5012872;28;20266;-70
2022/07/11 04:19:35;;;;;;;0.70;0.70;;;11.70;99.10;;;;;;5014154;28;20602;-70
2022/07/11 04:22:01;;;;;;;0.40;0.40;;;11.70;99.40;;;;;;5014567;28;20179;-70
2022/07/11 04:24:26;;;;;;;0.40;0.40;;;11.70;99.40;;;;;;5014500;28;20179;-70
2022/07/11 04:26:52;;;;;;;0.70;0.70;;;11.70;99.40;;;;;;5014521;28;20176;-70
2022/07/11 04:29:17;;;;;;;0.40;0.40;;;11.60;99.20;;;;;;5014186;28;20594;-70
2022/07/11 04:31:43;;;;;;;0.60;0.60;;;11.50;99.70;;;;;;5014272;28;20218;-71
2022/07/11 04:34:09;;;;;;;0.70;0.70;;;11.60;99.70;;;;;;5014394;28;20196;-70
2022/07/11 04:36:34;;;;;;;2.00;0.40;;;11.60;99.60;;;;;;5014493;28;20167;-70
2022/07/11 04:39:00;;;;;;;0.40;0.40;;;12.00;99.80;;;;;;5013912;28;20193;-70
2022/07/11 04:41:26;;;;;;;0.50;0.50;;;12.50;99.00;;;;;;5014307;28;20166;-70
2022/07/11 04:43:51;;;;;;;0.70;0.70;;;13.00;98.20;;;;;;5014044;28;20176;-70
2022/07/11 04:46:17;;;;;;;1.80;0.90;;;13.80;97.30;;;;;;5012804;28;20181;-69
2022/07/11 04:48:43;;;;;;;0.40;0.40;;;14.50;95.80;;;;;;5013860;28;20203;-70
2022/07/11 04:51:08;;;;;;;0.60;0.60;;;14.90;94.40;;;;;;5013904;28;20271;-69
2022/07/11 04:53:34;;;;;;;0.40;0.40;;;15.10;94.00;;;;;;5014085;28;20198;-70
2022/07/11 04:56:00;;;;;;;0.70;0.70;;;15.10;93.30;;;;;;5013975;28;20652;-70
2022/07/11 04:58:26;;;;;;;0.60;0.60;;;15.00;92.90;;;;;;5013832;28;20470;-70
2022/07/11 05:00:51;;;;;;;0.50;0.50;;;15.10;93.40;;;;;;5012432;28;20302;-71
2022/07/11 05:03:19;;;;;;;0.80;0.80;;;15.40;93.90;;;;;;5012335;28;20171;-71
2022/07/11 05:05:44;;;;;;;0.50;0.40;;;16.20;97.20;;;;;;5013266;28;20175;-71
2022/07/11 05:08:10;;;;;;;0.67;0.57;;;16.90;96.70;;;;;;5011911;28;20441;-70
2022/07/11 05:10:36;;;;;;;0.40;0.40;;;17.40;92.20;;;;;;5013247;28;20182;-70
2022/07/11 05:13:02;;;;;;;0.53;0.53;;;18.00;89.40;;;;;;5013675;28;20195;-69
2022/07/11 05:15:28;;;;;;;0.50;0.50;;;18.80;87.90;;;;;;5012566;28;20408;-70
2022/07/11 05:17:54;;;;;;;1.17;0.73;;;19.40;82.80;;;;;;5013444;28;20479;-70
2022/07/11 05:20:19;;;;;;;0.40;0.40;;;19.50;82.80;;;;;;5013910;28;20526;-70
2022/07/11 05:22:45;;;;;;;0.40;0.40;;;19.30;83.00;;;;;;5014198;28;20482;-69
2022/07/11 05:25:11;;;;;;;0.40;0.40;;;19.10;82.00;;;;;;5012742;28;20190;-70
2022/07/11 05:27:38;;;;;;;0.53;0.53;;;19.00;81.80;;;;;;5027792;28;20203;-69
2022/07/11 05:30:04;;;;;;;0.40;0.40;;;18.70;80.60;;;;;;5012302;28;20921;-69
2022/07/11 05:32:30;;;;;;;0.40;0.40;;;18.70;83.50;;;;;;5017743;28;20463;-71
2022/07/11 05:35:00;;;;;;;0.30;0.30;;;18.70;84.80;;;;;;5017463;28;20457;-70
2022/07/11 05:37:26;;;;;;;0.40;0.40;;;18.70;83.50;;;;;;5017545;28;20580;-70
2022/07/11 05:39:51;;;;;;;0.30;0.30;;;18.40;82.20;;;;;;5017452;28;20406;-70
2022/07/11 05:42:17;;;;;;;0.43;0.43;;;17.90;82.00;;;;;;5017826;28;20186;-70
2022/07/11 05:44:43;;;;;;;0.90;0.90;;;17.90;85.80;;;;;;5017605;28;20206;-70
2022/07/11 05:47:08;;;;;;;2.33;2.13;;;17.90;86.50;;;;;;5016057;28;20175;-69
2022/07/11 05:49:34;;;;;;;0.90;0.90;;;18.00;88.00;;;;;;5017323;28;20173;-70
2022/07/11 05:52:01;;;;;;;0.60;0.60;;;18.30;85.90;;;;;;5017359;28;20185;-70
2022/07/11 05:54:28;;;;;;;0.53;0.53;;;18.60;84.90;;;;;;5017355;28;20173;-69
2022/07/11 05:56:54;;;;;;;0.87;0.87;;;18.90;80.60;;;;;;5017492;28;20788;-69
2022/07/11 05:59:20;;;;;;;2.10;1.17;;;19.30;80.90;;;;;;5017235;28;20801;-70
2022/07/11 06:01:47;;;;;;;0.43;0.43;;;19.50;76.90;;;;;;5017460;28;20398;-70
2022/07/11 06:04:13;;;;;;;0.83;0.43;;;19.50;79.90;;;;;;5017272;28;20403;-70
2022/07/11 06:06:39;;;;;;;0.40;0.40;;;19.50;78.30;;;;;;5017192;28;20452;-70
2022/07/11 06:09:05;;;;;;;0.50;0.50;;;19.40;78.50;;;;;;5016714;28;20440;-69
2022/07/11 06:11:31;;;;;;;0.57;0.57;;;18.70;75.70;;;;;;5017084;28;20495;-69
2022/07/11 06:13:57;;;;;;;1.20;0.93;;;18.30;78.50;;;;;;5016997;28;20455;-69
2022/07/11 06:16:23;;;;;;;0.40;0.40;;;18.20;77.00;;;;;;5017120;28;20498;-69
2022/07/11 06:18:50;;;;;;;0.43;0.43;;;17.80;78.10;;;;;;5016529;28;20518;-70
2022/07/11 06:21:16;;;;;;;0.40;0.40;;;18.20;79.20;;;;;;5015668;28;20775;-70
2022/07/11 06:23:42;;;;;;;0.40;0.40;;;19.40;75.20;;;;;;5014733;28;20418;-70
2022/07/11 06:26:08;;;;;;;0.43;0.43;;;21.20;71.60;;;;;;5015093;28;20187;-71
2022/07/11 06:28:34;;;;;;;0.40;0.40;;;23.00;65.40;;;;;;5014381;28;20703;-70
2022/07/11 06:31:00;;;;;;;0.40;0.40;;;23.90;61.60;;;;;;5013580;28;20414;-71
2022/07/11 06:33:26;;;;;;;2.73;0.50;;;25.30;60.10;;;;;;5015806;28;20199;-71
2022/07/11 06:35:51;;;;;;;0.30;0.30;;;25.60;53.00;;;;;;5015153;28;20388;-71
2022/07/11 06:38:17;;;;;;;0.50;0.40;;;26.00;53.40;;;;;;5013896;28;20190;-71
2022/07/11 06:40:43;;;;;;;0.37;0.37;;;26.70;53.40;;;;;;5014426;28;20509;-71
2022/07/11 06:43:09;;;;;;;0.40;0.40;;;27.30;50.10;;;;;;5013848;28;20194;-71
2022/07/11 06:45:36;;;;;;;0.43;0.43;;;27.30;47.80;;;;;;5015036;28;20176;-71
2022/07/11 06:48:01;;;;;;;0.47;0.47;;;26.60;48.80;;;;;;5014618;28;20512;-70
2022/07/11 06:50:28;;;;;;;0.40;0.40;;;26.10;49.90;;;;;;5013685;28;20497;-71
2022/07/11 06:52:53;;;;;;;0.50;0.50;;;25.50;50.50;;;;;;5014676;28;20191;-72
2022/07/11 06:55:19;;;;;;;0.40;0.40;;;25.00;49.90;;;;;;5013916;28;20497;-71
2022/07/11 06:57:45;;;;;;;0.40;0.40;;;25.30;51.80;;;;;;5012647;28;20195;-70
2022/07/11 07:00:11;;;;;;;0.80;0.80;;;25.90;49.90;;;;;;5013936;28;20172;-72
2022/07/11 07:02:38;;;;;;;0.30;0.30;;;26.70;49.30;;;;;;5012707;28;20175;-71
2022/07/11 07:05:05;;;;;;;0.40;0.40;;;27.70;48.20;;;;;;5014274;28;20407;-72
2022/07/11 07:07:31;;;;;;;0.37;0.37;;;28.80;47.40;;;;;;5013325;28;20438;-72
2022/07/11 07:09:57;;;;;;;0.40;0.40;;;30.40;45.40;;;;;;5014498;28;20406;-72
2022/07/11 07:12:23;;;;;;;0.40;0.30;;;31.30;41.50;;;;;;5015014;28;20218;-71
2022/07/11 07:14:49;;;;;;;0.30;0.30;;;30.60;40.00;;;;;;5015103;28;20187;-72
2022/07/11 07:17:16;;;;;;;0.30;0.30;;;29.50;40.20;;;;;;5014983;28;20831;-72
2022/07/11 07:19:41;;;;;;;0.40;0.40;;;29.50;41.70;;;;;;5015547;28;20413;-71
2022/07/11 07:22:08;;;;;;;0.30;0.30;;;29.50;40.60;;;;;;5014992;28;20414;-72
2022/07/11 07:24:37;;;;;;;0.30;0.30;;;29.00;39.80;;;;;;4975244;28;1144854;-72
2022/07/11 07:27:06;;;;;;;0.30;0.30;;;28.50;40.60;;;;;;5015560;28;20638;-72
2022/07/11 07:29:35;;;;;;;0.30;0.30;;;28.10;42.20;;;;;;5015984;28;20430;-72
2022/07/11 07:32:00;;;;;;;0.30;0.30;;;28.60;43.10;;;;;;5014583;28;20431;-71
2022/07/11 07:34:26;;;;;;;0.40;0.40;;;29.10;42.70;;;;;;5015999;28;20398;-72
2022/07/11 07:36:52;;;;;;;0.30;0.30;;;29.20;39.80;;;;;;5015238;28;20247;-71
2022/07/11 07:39:18;;;;;;;0.40;0.40;;;29.00;40.80;;;;;;5015373;28;20326;-71
2022/07/11 07:41:44;;;;;;;0.60;0.50;;;29.60;41.30;;;;;;5015694;28;20176;-71
2022/07/11 07:44:10;;;;;;;0.30;0.30;;;30.30;39.20;;;;;;5015614;28;20190;-70
2022/07/11 07:46:36;;;;;;;0.47;0.33;;;31.10;38.80;;;;;;5015772;28;20538;-71
2022/07/11 07:49:02;;;;;;;0.40;0.30;;;31.40;37.80;;;;;;5014839;28;20438;-72
2022/07/11 07:51:28;;;;;;;0.53;0.50;;;31.40;37.00;;;;;;5015462;28;20229;-71
2022/07/11 07:53:54;;;;;;;0.30;0.30;;;31.90;38.90;;;;;;5014250;28;20454;-71
2022/07/11 07:56:20;;;;;;;0.40;0.30;;;32.70;36.00;;;;;;5015275;28;20410;-71
2022/07/11 07:58:46;;;;;;;0.40;0.30;;;33.20;33.90;;;;;;5013375;28;20266;-71
2022/07/11 08:03:56;;;;;;;0.60;0.40;;;34.20;35.20;;;;;;5014775;28;20601;-71
2022/07/11 08:06:22;;;;;;;0.47;0.40;;;35.00;32.20;;;;;;5013605;28;20442;-71
2022/07/11 08:08:49;;;;;;;0.40;0.40;;;34.10;33.60;;;;;;5013229;28;20201;-71
2022/07/11 08:11:15;;;;;;;0.40;0.40;;;34.20;34.50;;;;;;5014824;28;20171;-71
2022/07/11 08:13:40;;;;;;;0.40;0.30;;;34.80;32.60;;;;;;5014617;28;20460;-72
2022/07/11 08:16:06;;;;;;;0.30;0.30;;;35.40;31.30;;;;;;5014727;28;20501;-69
2022/07/11 08:18:33;;;;;;;0.40;0.30;;;35.80;31.40;;;;;;5014393;28;20237;-69
2022/07/11 08:20:58;;;;;;;0.30;0.30;;;36.30;31.40;;;;;;5014522;28;20498;-70
2022/07/11 08:23:24;;;;;;;0.40;0.40;;;36.60;30.70;;;;;;5012381;28;20513;-68
2022/07/11 08:25:50;;;;;;;0.40;0.40;;;36.50;30.10;;;;;;5013341;28;20195;-69
2022/07/11 08:28:16;;;;;;;0.40;0.30;;;36.20;30.60;;;;;;5013924;28;20202;-68
2022/07/11 08:30:41;;;;;;;0.40;0.40;;;35.30;30.20;;;;;;5012601;28;20207;-68
2022/07/11 08:33:07;;;;;;;0.40;0.40;;;35.70;31.40;;;;;;5014295;28;20213;-68
2022/07/11 08:35:33;;;;;;;0.40;0.40;;;35.60;30.50;;;;;;5013598;28;20168;-68
2022/07/11 08:37:58;;;;;;;0.40;0.30;;;36.00;32.60;;;;;;5012271;28;20257;-68
2022/07/11 08:40:24;;;;;;;0.43;0.43;;;35.90;30.10;;;;;;5013900;28;20164;-68
2022/07/11 08:42:51;;;;;;;0.33;0.33;;;36.00;30.80;;;;;;5012493;28;20318;-68
2022/07/11 08:45:17;;;;;;;0.40;0.30;;;35.50;31.30;;;;;;5014325;28;20179;-68
2022/07/11 08:47:44;;;;;;;0.40;0.40;;;35.40;31.00;;;;;;5013306;28;20938;-68
2022/07/11 08:50:11;;;;;;;0.50;0.50;;;36.10;31.50;;;;;;5012371;28;20547;-68
2022/07/11 08:52:38;;;;;;;0.40;0.30;;;35.80;30.30;;;;;;5012571;28;20458;-68
2022/07/11 08:55:07;;;;;;;0.30;0.30;;;35.80;30.70;;;;;;5013845;28;20490;-68
2022/07/11 08:57:36;;;;;;;0.30;0.30;;;35.80;32.00;;;;;;5013476;28;20906;-68
2022/07/11 09:00:08;;;;;;;0.40;0.30;;;36.10;31.00;;;;;;5013841;28;20402;-68
2022/07/11 09:02:36;;;;;;;0.40;0.30;;;36.80;29.80;;;;;;5012610;28;20407;-68
2022/07/11 09:05:08;;;;;;;0.33;0.30;;;37.20;30.00;;;;;;5014191;28;20425;-68
2022/07/11 09:07:40;;;;;;;0.40;0.40;;;37.10;29.00;;;;;;5014105;28;20445;-67
2022/07/11 09:10:06;;;;;;;0.40;0.30;;;35.70;31.30;;;;;;5014332;28;20395;-68
2022/07/11 09:12:31;;;;;;;0.30;0.30;;;34.60;31.30;;;;;;5013937;28;20458;-68
2022/07/11 09:14:59;;;;;;;0.40;0.40;;;34.40;33.90;;;;;;5012603;28;20450;-68
2022/07/11 09:17:27;;;;;;;0.47;0.40;;;34.30;32.60;;;;;;5012636;28;20171;-68
2022/07/11 09:19:54;;;;;;;0.40;0.30;;;34.00;33.30;;;;;;5013458;28;20407;-67
2022/07/11 09:25:29;;;;;;;0.37;0.30;;;33.90;32.80;;;;;;5013037;28;20437;-68
2022/07/11 09:28:05;;;;;;;0.60;0.40;;;33.80;32.30;;;;;;5013481;28;20430;-68
2022/07/11 09:30:32;;;;;;;0.40;0.30;;;34.60;33.90;;;;;;5013713;28;20449;-68
2022/07/11 09:33:00;;;;;;;0.40;0.40;;;34.30;32.60;;;;;;5013695;28;20873;-68
2022/07/11 09:35:32;;;;;;;0.37;0.37;;;34.00;32.00;;;;;;5013767;28;20399;-68
2022/07/11 09:38:01;;;;;;;0.40;0.30;;;34.00;33.60;;;;;;5013315;28;20414;-68
2022/07/11 09:40:27;;;;;;;0.40;0.40;;;33.10;32.60;;;;;;5013620;28;20410;-68
2022/07/11 09:42:55;;;;;;;0.40;0.30;;;33.20;34.10;;;;;;5013497;28;20776;-68
2022/07/11 09:45:23;;;;;;;1.03;0.60;;;33.60;36.80;;;;;;5013613;28;20171;-68
2022/07/11 09:47:51;;;;;;;0.40;0.40;;;33.60;34.10;;;;;;5013316;28;20433;-68
2022/07/11 09:50:28;;;;;;;0.40;0.30;;;33.80;32.30;;;;;;5013383;28;20418;-68
2022/07/11 09:53:23;;;;;;;0.40;0.40;;;34.30;33.30;;;;;;5013327;28;20553;-68
2022/07/11 09:55:50;;;;;;;1.43;0.70;;;34.40;31.80;;;;;;5013444;28;20410;-68
2022/07/11 09:58:16;;;;;;;0.40;0.40;;;34.40;32.50;;;;;;5013124;28;20521;-68
2022/07/11 10:00:43;;;;;;;0.40;0.40;;;34.30;32.20;;;;;;5013279;28;20403;-67
2022/07/11 10:03:10;;;;;;;0.40;0.40;;;34.10;32.90;;;;;;5012731;28;20423;-68
2022/07/11 10:05:36;;;;;;;0.50;0.50;;;33.80;35.00;;;;;;5013323;28;20883;-67
2022/07/11 10:08:03;;;;;;;0.40;0.40;;;34.10;32.90;;;;;;5013028;28;20449;-68
2022/07/11 10:10:30;;;;;;;0.40;0.40;;;34.50;35.50;;;;;;5013152;28;20410;-68
2022/07/11 10:12:57;;;;;;;0.40;0.40;;;34.00;34.60;;;;;;5013270;28;20490;-68
2022/07/11 10:15:37;;;;;;;0.40;0.40;;;33.40;34.30;;;;;;5013125;28;20813;-68
2022/07/11 10:18:02;;;;;;;0.40;0.40;;;33.40;35.20;;;;;;5016733;28;20473;-68
2022/07/11 10:20:41;;;;;;;0.30;0.30;;;33.60;32.80;;;;;;5016801;28;20434;-68
2022/07/11 10:23:26;;;;;;;0.40;0.30;;;33.90;34.00;;;;;;5016590;28;20179;-68
2022/07/11 10:26:01;;;;;;;0.40;0.40;;;34.10;36.60;;;;;;5016561;28;20805;-68
2022/07/11 10:28:39;;;;;;;0.40;0.40;;;33.80;35.40;;;;;;5016522;28;20844;-68
2022/07/11 10:31:20;;;;;;;0.40;0.40;;;34.00;36.40;;;;;;5016624;28;20417;-71
2022/07/11 10:34:05;;;;;;;0.37;0.37;;;33.80;33.10;;;;;;5016429;28;20460;-69
2022/07/11 10:36:32;;;;;;;0.30;0.30;;;33.20;34.40;;;;;;5016474;28;20437;-68
2022/07/11 10:39:29;;;;;;;0.70;0.40;;;32.40;36.10;;;;;;5016212;28;20426;-69
2022/07/11 10:41:56;;;;;;;0.40;0.40;;;31.30;36.10;;;;;;5016545;28;20406;-68
2022/07/11 10:44:22;;;;;;;0.40;0.40;;;31.20;38.80;;;;;;5016277;28;20398;-68
2022/07/11 10:46:48;;;;;;;0.40;0.40;;;31.10;37.00;;;;;;5016321;28;20497;-68
2022/07/11 10:49:14;;;;;;;0.40;0.40;;;31.20;39.80;;;;;;5015916;28;20530;-68
2022/07/11 10:52:06;;;;;;;0.83;0.50;;;31.00;37.80;;;;;;5016275;28;20816;-69
2022/07/11 10:54:51;;;;;;;0.30;0.30;;;31.10;38.70;;;;;;5016304;28;20446;-68
2022/07/11 10:57:28;;;;;;;0.50;0.50;;;31.20;36.80;;;;;;5016054;28;20405;-68
2022/07/11 11:00:10;;;;;;;0.40;0.40;;;30.70;39.00;;;;;;5016042;28;20863;-68
2022/07/11 11:02:54;;;;;;;0.50;0.50;;;30.60;40.60;;;;;;5016259;28;20405;-68
2022/07/11 11:05:40;;;;;;;0.50;0.40;;;30.20;40.80;;;;;;5015901;28;20489;-68
2022/07/11 11:08:41;;;;;;;0.40;0.40;;;29.80;39.50;;;;;;5015865;28;20794;-69
2022/07/11 11:11:22;;;;;;;0.40;0.40;;;29.50;40.60;;;;;;5015888;28;20860;-68
2022/07/11 11:14:16;;;;;;;0.50;0.50;;;29.00;39.90;;;;;;5015861;28;20450;-69
2022/07/11 11:16:42;;;;;;;0.73;0.40;;;28.80;42.10;;;;;;5015978;28;20489;-68
2022/07/11 11:19:45;;;;;;;0.30;0.30;;;28.60;42.40;;;;;;5015318;28;20513;-68
2022/07/11 11:22:15;;;;;;;0.30;0.30;;;28.30;43.50;;;;;;5015078;28;20194;-68
2022/07/11 11:24:43;;;;;;;0.40;0.40;;;28.10;44.10;;;;;;5014633;28;20447;-68
2022/07/11 11:27:19;;;;;;;0.40;0.40;;;28.00;42.50;;;;;;5015191;28;20498;-68
2022/07/11 11:29:45;;;;;;;0.30;0.30;;;28.00;43.30;;;;;;5014915;28;20465;-68
2022/07/11 11:32:11;;;;;;;0.50;0.47;;;28.00;43.30;;;;;;5013747;28;20410;-68
2022/07/11 11:34:41;;;;;;;0.60;0.40;;;27.60;41.90;;;;;;5014034;28;20489;-69
2022/07/11 11:37:07;;;;;;;0.60;0.60;;;27.30;43.50;;;;;;5013033;28;20756;-69
2022/07/11 11:39:41;;;;;;;0.30;0.30;;;27.20;44.10;;;;;;5015150;28;20421;-68
2022/07/11 11:42:13;;;;;;;0.37;0.37;;;27.30;44.60;;;;;;5014890;28;20745;-69
2022/07/11 11:44:56;;;;;;;0.50;0.50;;;27.40;46.10;;;;;;5014563;28;20406;-69
2022/07/11 11:47:23;;;;;;;0.40;0.30;;;27.60;44.50;;;;;;5014053;28;20398;-69
2022/07/11 11:49:50;;;;;;;0.30;0.30;;;27.50;42.90;;;;;;5015038;28;20406;-69
2022/07/11 11:52:16;;;;;;;0.40;0.40;;;27.30;44.10;;;;;;5014543;28;20545;-70
2022/07/11 11:54:45;;;;;;;0.40;0.40;;;27.10;44.80;;;;;;5012442;28;20428;-70
2022/07/11 11:57:11;;;;;;;0.50;0.50;;;27.10;44.00;;;;;;5013518;28;20426;-68
2022/07/11 11:59:38;;;;;;;0.77;0.77;;;27.10;44.70;;;;;;5012463;28;20418;-68
2022/07/11 12:02:04;;;;;;;0.40;0.30;;;26.70;45.70;;;;;;5015230;28;20394;-68
2022/07/11 12:04:34;;;;;;;0.33;0.33;;;26.90;46.80;;;;;;5014053;28;20413;-68
2022/07/11 12:07:03;;;;;;;0.30;0.30;;;26.90;46.60;;;;;;5013228;28;20898;-68
2022/07/11 12:09:50;;;;;;;0.30;0.30;;;26.90;44.40;;;;;;5014469;28;20494;-68
2022/07/11 12:15:21;;;;;;;0.40;0.40;;;26.60;45.10;;;;;;5014578;28;20407;-68
2022/07/11 12:17:47;;;;;;;0.40;0.40;;;26.60;46.00;;;;;;5014394;28;20488;-67
2022/07/11 12:20:12;;;;;;;0.37;0.37;;;26.70;46.40;;;;;;5014548;28;20528;-68
2022/07/11 12:22:42;;;;;;;0.40;0.40;;;26.70;46.00;;;;;;5014551;28;20179;-68
2022/07/11 12:25:10;;;;;;;0.40;0.40;;;26.80;46.20;;;;;;5014624;28;20206;-68
2022/07/11 12:27:35;;;;;;;0.40;0.40;;;26.90;46.60;;;;;;5014280;28;20509;-67
2022/07/11 12:30:02;;;;;;;0.40;0.40;;;27.00;46.50;;;;;;5014419;28;20442;-68
2022/07/11 12:32:28;;;;;;;0.30;0.30;;;27.10;45.30;;;;;;5013146;28;20246;-68
2022/07/11 12:34:54;;;;;;;0.60;0.40;;;27.00;44.40;;;;;;5014248;28;20813;-68
2022/07/11 12:37:20;;;;;;;0.40;0.40;;;26.80;44.30;;;;;;5012889;28;20195;-68
2022/07/11 12:39:56;;;;;;;0.40;0.40;;;26.40;45.90;;;;;;5012065;28;20516;-68
2022/07/11 12:42:31;;;;;;;1.80;1.70;;;26.30;47.30;;;;;;5013986;28;20457;-68
2022/07/11 12:45:07;;;;;;;0.40;0.40;;;26.40;48.60;;;;;;5014310;28;20494;-68
2022/07/11 12:47:35;;;;;;;0.50;0.50;;;26.50;46.50;;;;;;5013901;28;20433;-68
2022/07/11 12:50:26;;;;;;;0.60;0.50;;;26.60;47.50;;;;;;5014194;28;20409;-67
2022/07/11 12:52:54;;;;;;;0.30;0.30;;;26.60;46.60;;;;;;5014178;28;20460;-68
2022/07/11 12:55:20;;;;;;;0.30;0.30;;;26.60;48.90;;;;;;5012442;28;20449;-69
2022/07/11 12:58:05;;;;;;;0.40;0.40;;;26.60;46.90;;;;;;5013774;28;20523;-69
2022/07/11 13:00:33;;;;;;;0.30;0.30;;;26.90;47.20;;;;;;5013053;28;20914;-69